
Distance (Route):
Temperature : -35.7°C
Humidity : 0.4%
Pressure : 7.0hPa| Receiver | Date | Latitude | Longitude | Direction | Speed | Altitude | Climb | Temperature | Humidity | Pressure | Voltage | Killtimer | Uptime | BKT | XDATA |
|---|---|---|---|---|---|---|---|---|---|---|---|---|---|---|---|
| SP4MAZ | 2026-09-02 00:50:26 | 57.06509 | 27.94280 | 0° | 0km/h | 18288m | 0.0m/s | -35.7°C | 0.4% | 7.0hPa | 0V | 00:00:00 | 00:00:00 | 00:00:00 | |
| SP4MAZ | 2026-09-02 00:50:03 | 52.43083 | 21.61250 | 278° | 637km/h | 26683m | -90.7m/s | -35.8°C | 0.5% | 7.2hPa | 0V | 00:00:00 | 00:00:00 | 00:00:00 | |
| SP4MAZ | 2026-09-02 00:49:15 | 39.02120 | 44.71795 | 0° | 0km/h | 8434m | 0.0m/s | -37.4°C | 0.5% | 7.6hPa | 0V | 00:00:00 | 00:00:00 | 00:00:00 | |
| SP4MAZ | 2026-09-02 00:48:52 | 52.43083 | 21.61250 | 278° | 637km/h | 26683m | -90.7m/s | -38.7°C | 0.5% | 7.7hPa | 0V | 00:00:00 | 00:00:00 | 00:00:00 | |
| SP4MAZ | 2026-09-02 00:48:31 | 52.43083 | 21.61250 | 278° | 637km/h | 26683m | -90.7m/s | -39.1°C | 0.6% | 7.9hPa | 0V | 00:00:00 | 00:00:00 | 00:00:00 | |
| SP4MAZ | 2026-09-02 00:47:41 | 39.02120 | 44.71795 | 0° | 0km/h | 8434m | 0.0m/s | -37.3°C | 0.5% | 8.4hPa | 0V | 00:00:00 | 00:00:00 | 00:00:00 | |
| SP4MAZ | 2026-09-02 00:46:58 | 52.43083 | 21.61250 | 278° | 637km/h | 26683m | -90.7m/s | -37.9°C | 0.5% | 8.8hPa | 0V | 00:00:00 | 00:00:00 | 00:00:00 | |
| SP4MAZ | 2026-09-02 00:46:35 | 52.43083 | 21.61250 | 278° | 637km/h | 26683m | -90.7m/s | -37.8°C | 0.5% | 9.0hPa | 0V | 00:00:00 | 00:00:00 | 00:00:00 | |
| SP4MAZ | 2026-09-02 00:45:49 | 39.02120 | 44.71795 | 0° | 0km/h | 8434m | 0.0m/s | -38.9°C | 0.5% | 9.6hPa | 0V | 00:00:00 | 00:00:00 | 00:00:00 | |
| SP4MAZ | 2026-09-02 00:45:29 | 39.02120 | 44.71795 | 0° | 0km/h | 8434m | 0.0m/s | -39.6°C | 0.6% | 9.7hPa | 0V | 00:00:00 | 00:00:00 | 00:00:00 | |
| SP4MAZ | 2026-09-02 00:45:09 | 39.02120 | 44.71795 | 0° | 0km/h | 8434m | 0.0m/s | -39.3°C | 0.6% | 9.9hPa | 0V | 00:00:00 | 00:00:00 | 00:00:00 | |
| SP4MAZ | 2026-09-02 00:44:45 | 52.43083 | 21.61250 | 278° | 637km/h | 26683m | -90.7m/s | -40.5°C | 0.6% | 10.2hPa | 0V | 00:00:00 | 00:00:00 | 00:00:00 | |
| SP4MAZ | 2026-09-02 00:43:57 | 39.02120 | 44.71795 | 0° | 0km/h | 8434m | 0.0m/s | -41.3°C | 0.6% | 10.7hPa | 0V | 00:00:00 | 00:00:00 | 00:00:00 | |
| SP3BTT-10 | 2026-09-02 00:43:40 | 52.43043 | 21.65288 | 278° | 172km/h | 28409m | -85.5m/s | 0°C | 0% | 0hPa | 0V | 00:00:00 | 00:00:00 | 00:00:00 | |
| SP3WXH-11 | 2026-09-02 00:43:26 | 52.41970 | 21.75127 | 345° | 153km/h | 30249m | 7.7m/s | -42.1°C | 0.7% | 11.3hPa | 0V | 00:00:00 | 00:00:00 | 00:00:00 | |
| SP4MAZ | 2026-09-02 00:43:02 | 52.41882 | 21.75003 | 323° | 389km/h | 30483m | 14.3m/s | -42.0°C | 0.7% | 11.4hPa | 0V | 00:00:00 | 00:00:00 | 00:00:00 | |
| SP3WXH-11 | 2026-09-02 00:42:55 | 52.41072 | 21.75753 | 110° | 4km/h | 30500m | 6.1m/s | -41.7°C | 0.7% | 11.6hPa | 0V | 00:00:00 | 00:00:00 | 00:00:00 | |
| SP4MAZ | 2026-09-02 00:42:39 | 52.41063 | 21.75745 | 58° | 13km/h | 30457m | 6.2m/s | -41.7°C | 0.6% | 11.6hPa | 0V | 00:00:00 | 00:00:00 | 00:00:00 | |
| SP3BTT-10 | 2026-09-02 00:42:36 | 52.41061 | 21.75728 | 132° | 11km/h | 30429m | 5.2m/s | 0°C | 0% | 0hPa | 0V | 00:00:00 | 00:00:00 | 00:00:00 | |
| SP3WXH-11 | 2026-09-02 00:42:24 | 52.41063 | 21.75727 | 107° | 20km/h | 30339m | 7.0m/s | -42.5°C | 0.6% | 11.9hPa | 0V | 00:00:00 | 00:00:00 | 00:00:00 | |
| SP4MAZ | 2026-09-02 00:42:18 | 52.41065 | 21.75701 | 105° | 22km/h | 30311m | 6.5m/s | -42.8°C | 0.7% | 11.9hPa | 0V | 00:00:00 | 00:00:00 | 00:00:00 | |
| SP3WXH-11 | 2026-09-02 00:41:53 | 52.41088 | 21.75480 | 80° | 24km/h | 30109m | 7.0m/s | -44.2°C | 0.7% | 12.3hPa | 0V | 00:00:00 | 00:00:00 | 00:00:00 | |
| SP4MAZ | 2026-09-02 00:41:46 | 52.41093 | 21.75449 | 130° | 16km/h | 30078m | 5.5m/s | -44.2°C | 0.7% | 12.3hPa | 0V | 00:00:00 | 00:00:00 | 00:00:00 | |
| SP3BTT-10 | 2026-09-02 00:41:35 | 52.41078 | 21.75392 | 85° | 15km/h | 29990m | 9.4m/s | 0°C | 0% | 0hPa | 0V | 00:00:00 | 00:00:00 | 00:00:00 | |
| SP4MAZ | 2026-09-02 00:41:26 | 52.41088 | 21.75369 | 334° | 4km/h | 29931m | 4.7m/s | -44.3°C | 0.7% | 12.6hPa | 0V | 00:00:00 | 00:00:00 | 00:00:00 | |
| SP3WXH-11 | 2026-09-02 00:41:22 | 52.41077 | 21.75381 | 92° | 5km/h | 29900m | 7.7m/s | -44.5°C | 0.7% | 12.7hPa | 0V | 00:00:00 | 00:00:00 | 00:00:00 | |
| SP4MAZ | 2026-09-02 00:41:04 | 52.41060 | 21.75315 | 88° | 20km/h | 29780m | 6.7m/s | -44.7°C | 0.7% | 12.9hPa | 0V | 00:00:00 | 00:00:00 | 00:00:00 | |
| SP3WXH-11 | 2026-09-02 00:40:51 | 52.41052 | 21.75275 | 85° | 7km/h | 29678m | 8.6m/s | -45.0°C | 0.8% | 13.1hPa | 0V | 00:00:00 | 00:00:00 | 00:00:00 | |
| SP3BTT-10 | 2026-09-02 00:40:35 | 52.41025 | 21.75219 | 69° | 11km/h | 29567m | 7.4m/s | 0°C | 0% | 0hPa | 0V | 00:00:00 | 00:00:00 | 00:00:00 | |
| SP3WXH-11 | 2026-09-02 00:40:19 | 52.41027 | 21.75145 | 121° | 31km/h | 29457m | 8.3m/s | -45.5°C | 0.8% | 13.5hPa | 0V | 00:00:00 | 00:00:00 | 00:00:00 | |
| SP3WXH-11 | 2026-09-02 00:39:49 | 52.41064 | 21.75005 | 111° | 18km/h | 29232m | 6.0m/s | -46.2°C | 0.8% | 14.0hPa | 0V | 00:00:00 | 00:00:00 | 00:00:00 | |
| SP4MAZ | 2026-09-02 00:39:34 | 52.41071 | 21.74931 | 106° | 35km/h | 29161m | 5.4m/s | -46.1°C | 0.8% | 14.1hPa | 0V | 00:00:00 | 00:00:00 | 00:00:00 | |
| SP3WXH-11 | 2026-09-02 00:39:17 | 52.41083 | 21.74712 | 71° | 44km/h | 29040m | 6.0m/s | -46.1°C | 0.8% | 14.4hPa | 0V | 00:00:00 | 00:00:00 | 00:00:00 | |
| SP4MAZ | 2026-09-02 00:39:14 | 52.41076 | 21.74683 | 74° | 35km/h | 29027m | 5.6m/s | -46.0°C | 0.8% | 14.4hPa | 0V | 00:00:00 | 00:00:00 | 00:00:00 | |
| SP3WXH-11 | 2026-09-02 00:38:46 | 52.41044 | 21.74385 | 88° | 13km/h | 28842m | 7.2m/s | -45.5°C | 0.8% | 14.8hPa | 0V | 00:00:00 | 00:00:00 | 00:00:00 | |
| SP4MAZ | 2026-09-02 00:38:27 | 52.41006 | 21.74243 | 82° | 13km/h | 28708m | 7.1m/s | -45.7°C | 0.8% | 15.1hPa | 0V | 00:00:00 | 00:00:00 | 00:00:00 | |
| SP3WXH-11 | 2026-09-02 00:38:16 | 52.40974 | 21.74155 | 78° | 15km/h | 28643m | 5.2m/s | -45.3°C | 0.8% | 15.3hPa | 0V | 00:00:00 | 00:00:00 | 00:00:00 | |
| SP4MAZ | 2026-09-02 00:38:07 | 52.40945 | 21.74099 | 35° | 26km/h | 28597m | 8.0m/s | -45.2°C | 0.8% | 15.4hPa | 0V | 00:00:00 | 00:00:00 | 00:00:00 | |
| SP3WXH-11 | 2026-09-02 00:37:45 | 52.40964 | 21.74066 | 107° | 7km/h | 28484m | 5.3m/s | -45.4°C | 0.8% | 15.8hPa | 0V | 00:00:00 | 00:00:00 | 00:00:00 | |
| SP4MAZ | 2026-09-02 00:37:38 | 52.41013 | 21.74093 | 325° | 13km/h | 28471m | 13.0m/s | -45.6°C | 0.8% | 16.0hPa | 0V | 00:00:00 | 00:00:00 | 00:00:00 | |
| SP4MAZ | 2026-09-02 00:37:15 | 52.40990 | 21.73995 | 122° | 26km/h | 28232m | 5.0m/s | -45.6°C | 0.8% | 16.3hPa | 0V | 00:00:00 | 00:00:00 | 00:00:00 | |
| SP3WXH-11 | 2026-09-02 00:37:13 | 52.40994 | 21.73980 | 170° | 9km/h | 28212m | 5.7m/s | -45.7°C | 0.8% | 16.4hPa | 0V | 00:00:00 | 00:00:00 | 00:00:00 | |
| SP4MAZ | 2026-09-02 00:36:55 | 52.41090 | 21.73947 | 186° | 20km/h | 28094m | 6.5m/s | -46.3°C | 0.8% | 16.6hPa | 0V | 00:00:00 | 00:00:00 | 00:00:00 | |
| SP3WXH-11 | 2026-09-02 00:36:42 | 52.41164 | 21.73872 | 128° | 13km/h | 27998m | 4.9m/s | -47.2°C | 0.8% | 16.9hPa | 0V | 00:00:00 | 00:00:00 | 00:00:00 | |
| SP4MAZ | 2026-09-02 00:36:21 | 52.41158 | 21.73669 | 80° | 18km/h | 27871m | 6.5m/s | -47.5°C | 0.8% | 17.2hPa | 0V | 00:00:00 | 00:00:00 | 00:00:00 | |
| SP3WXH-11 | 2026-09-02 00:36:11 | 52.41153 | 21.73579 | 43° | 16km/h | 27783m | 5.4m/s | -47.9°C | 0.9% | 17.4hPa | 0V | 00:00:00 | 00:00:00 | 00:00:00 | |
| SP4MAZ | 2026-09-02 00:36:01 | 52.41129 | 21.73516 | 64° | 18km/h | 27716m | 6.8m/s | -48.1°C | 0.9% | 17.6hPa | 0V | 00:00:00 | 00:00:00 | 00:00:00 | |
| SP3BTT-10 | 2026-09-02 00:35:56 | 52.41122 | 21.73484 | 96° | 11km/h | 27681m | 5.6m/s | 0°C | 0% | 0hPa | 0V | 00:00:00 | 00:00:00 | 00:00:00 | |
| SP3WXH-11 | 2026-09-02 00:35:40 | 52.41099 | 21.73430 | 159° | 4km/h | 27585m | 7.4m/s | -48.3°C | 0.9% | 18.0hPa | 0V | 00:00:00 | 00:00:00 | 00:00:00 | |
| SP4MAZ | 2026-09-02 00:35:38 | 52.41101 | 21.73428 | 133° | 11km/h | 27578m | 7.7m/s | -48.3°C | 0.9% | 18.0hPa | 0V | 00:00:00 | 00:00:00 | 00:00:00 | |
| SP4MAZ | 2026-09-02 00:35:19 | 52.41086 | 21.73401 | 352° | 11km/h | 27440m | 3.5m/s | -48.0°C | 0.9% | 18.4hPa | 0V | 00:00:00 | 00:00:00 | 00:00:00 | |
| SP3WXH-11 | 2026-09-02 00:35:09 | 52.41094 | 21.73398 | 189° | 9km/h | 27400m | 7.3m/s | -48.1°C | 0.9% | 18.5hPa | 0V | 00:00:00 | 00:00:00 | 00:00:00 | |
| SP3WXH-11 | 2026-09-02 00:34:38 | 52.41168 | 21.73385 | 278° | 9km/h | 27204m | 6.2m/s | -48.1°C | 0.9% | 19.1hPa | 0V | 00:00:00 | 00:00:00 | 00:00:00 | |
| SP4MAZ | 2026-09-02 00:34:26 | 52.41215 | 21.73367 | 183° | 20km/h | 27132m | 5.5m/s | -48.0°C | 0.9% | 19.3hPa | 0V | 00:00:00 | 00:00:00 | 00:00:00 | |
| SP3WXH-11 | 2026-09-02 00:34:07 | 52.41293 | 21.73326 | 136° | 15km/h | 26995m | 7.8m/s | -48.0°C | 0.9% | 19.7hPa | 0V | 00:00:00 | 00:00:00 | 00:00:00 | |
| SP4MAZ | 2026-09-02 00:34:06 | 52.41292 | 21.73325 | 137° | 15km/h | 26995m | 7.8m/s | -48.0°C | 0.9% | 19.7hPa | 0V | 00:00:00 | 00:00:00 | 00:00:00 | |
| SP4MAZ | 2026-09-02 00:33:45 | 52.41357 | 21.73248 | 129° | 18km/h | 26864m | 5.1m/s | -48.2°C | 0.9% | 20.1hPa | 0V | 00:00:00 | 00:00:00 | 00:00:00 | |
| SP3WXH-11 | 2026-09-02 00:33:37 | 52.41401 | 21.73233 | 169° | 20km/h | 26798m | 5.5m/s | -48.4°C | 0.9% | 20.3hPa | 0V | 00:00:00 | 00:00:00 | 00:00:00 | |
| SP4MAZ | 2026-09-02 00:33:23 | 52.41423 | 21.73219 | 190° | 9km/h | 26718m | 7.4m/s | -48.5°C | 0.9% | 20.6hPa | 0V | 00:00:00 | 00:00:00 | 00:00:00 | |
| SP3WXH-11 | 2026-09-02 00:33:05 | 52.41445 | 21.73177 | 76° | 7km/h | 26586m | 7.6m/s | -48.6°C | 0.9% | 21.0hPa | 0V | 00:00:00 | 00:00:00 | 00:00:00 | |
| SP4MAZ | 2026-09-02 00:33:03 | 52.41443 | 21.73170 | 102° | 11km/h | 26573m | 5.0m/s | -48.6°C | 0.9% | 21.0hPa | 0V | 00:00:00 | 00:00:00 | 00:00:00 | |
| SP4MAZ | 2026-09-02 00:32:42 | 52.41426 | 21.73127 | 27° | 11km/h | 26444m | 7.7m/s | -49.5°C | 1.0% | 21.5hPa | 0V | 00:00:00 | 00:00:00 | 00:00:00 | |
| SP3WXH-11 | 2026-09-02 00:32:34 | 52.41435 | 21.73109 | 197° | 2km/h | 26382m | 6.6m/s | -49.5°C | 1.0% | 21.6hPa | 0V | 00:00:00 | 00:00:00 | 00:00:00 | |
| SP4MAZ | 2026-09-02 00:32:22 | 52.41453 | 21.73111 | 212° | 16km/h | 26313m | 5.6m/s | -49.5°C | 0.9% | 21.9hPa | 0V | 00:00:00 | 00:00:00 | 00:00:00 | |
| SP3WXH-11 | 2026-09-02 00:32:03 | 52.41521 | 21.73132 | 151° | 15km/h | 26176m | 7.9m/s | -49.9°C | 1.0% | 22.4hPa | 0V | 00:00:00 | 00:00:00 | 00:00:00 | |
| SP4MAZ | 2026-09-02 00:31:33 | 52.41578 | 21.73039 | 13° | 5km/h | 25977m | 6.3m/s | -50.8°C | 1.0% | 23.0hPa | 0V | 00:00:00 | 00:00:00 | 00:00:00 | |
| SP3WXH-11 | 2026-09-02 00:31:32 | 52.41577 | 21.73039 | 106° | 2km/h | 25971m | 3.9m/s | -50.8°C | 1.0% | 23.1hPa | 0V | 00:00:00 | 00:00:00 | 00:00:00 | |
| SP4MAZ | 2026-09-02 00:31:12 | 52.41574 | 21.72943 | 80° | 9km/h | 25842m | 6.2m/s | -51.2°C | 1.0% | 23.5hPa | 0V | 00:00:00 | 00:00:00 | 00:00:00 | |
| SP3WXH-11 | 2026-09-02 00:31:01 | 52.41578 | 21.72909 | 352° | 7km/h | 25764m | 6.4m/s | -51.6°C | 1.0% | 23.8hPa | 0V | 00:00:00 | 00:00:00 | 00:00:00 | |
| SP4MAZ | 2026-09-02 00:30:49 | 52.41563 | 21.72889 | 304° | 13km/h | 25681m | 4.9m/s | -51.5°C | 1.1% | 24.1hPa | 0V | 00:00:00 | 00:00:00 | 00:00:00 | |
| SP3WXH-11 | 2026-09-02 00:30:30 | 52.41553 | 21.72945 | 251° | 9km/h | 25557m | 6.5m/s | -51.9°C | 1.1% | 24.6hPa | 0V | 00:00:00 | 00:00:00 | 00:00:00 | |
| SP3WXH-11 | 2026-09-02 00:29:59 | 52.41555 | 21.73062 | 254° | 18km/h | 25336m | 4.2m/s | -52.2°C | 1.1% | 25.4hPa | 0V | 00:00:00 | 00:00:00 | 00:00:00 | |
| SP4MAZ | 2026-09-02 00:29:39 | 52.41616 | 21.73139 | 186° | 16km/h | 25231m | 4.6m/s | -52.1°C | 1.1% | 25.8hPa | 0V | 00:00:00 | 00:00:00 | 00:00:00 | |
| SP3WXH-11 | 2026-09-02 00:29:28 | 52.41671 | 21.73152 | 152° | 13km/h | 25148m | 6.6m/s | -51.9°C | 1.1% | 26.1hPa | 0V | 00:00:00 | 00:00:00 | 00:00:00 | |
| SP4MAZ | 2026-09-02 00:29:17 | 52.41709 | 21.73138 | 169° | 13km/h | 25103m | 6.1m/s | -52.1°C | 1.1% | 26.4hPa | 0V | 00:00:00 | 00:00:00 | 00:00:00 | |
| SP3WXH-11 | 2026-09-02 00:28:57 | 52.41760 | 21.73128 | 165° | 24km/h | 24962m | 5.3m/s | -52.0°C | 1.1% | 27.0hPa | 0V | 00:00:00 | 00:00:00 | 00:00:00 | |
| SP4MAZ | 2026-09-02 00:28:56 | 52.41756 | 21.73129 | 181° | 15km/h | 24966m | 4.2m/s | -52.0°C | 1.1% | 26.9hPa | 0V | 00:00:00 | 00:00:00 | 00:00:00 | |
| SP3WXH-11 | 2026-09-02 00:28:26 | 52.41822 | 21.73137 | 208° | 9km/h | 24783m | 4.7m/s | -52.4°C | 1.1% | 27.7hPa | 0V | 00:00:00 | 00:00:00 | 00:00:00 | |
| SP4MAZ | 2026-09-02 00:28:10 | 52.41813 | 21.73125 | 19° | 4km/h | 24686m | 4.6m/s | -52.6°C | 1.1% | 28.1hPa | 0V | 00:00:00 | 00:00:00 | 00:00:00 | |
| SP4MAZ | 2026-09-02 00:27:49 | 52.41825 | 21.73147 | 156° | 9km/h | 24562m | 6.2m/s | -52.7°C | 1.1% | 28.7hPa | 0V | 00:00:00 | 00:00:00 | 00:00:00 | |
| SP4MAZ | 2026-09-02 00:27:25 | 52.41891 | 21.73080 | 176° | 9km/h | 24412m | 5.3m/s | -52.8°C | 1.2% | 29.4hPa | 0V | 00:00:00 | 00:00:00 | 00:00:00 | |
| SP3WXH-11 | 2026-09-02 00:27:24 | 52.41896 | 21.73082 | 166° | 9km/h | 24399m | 4.7m/s | -52.8°C | 1.2% | 29.5hPa | 0V | 00:00:00 | 00:00:00 | 00:00:00 | |
| SP4MAZ | 2026-09-02 00:27:05 | 52.41943 | 21.72975 | 127° | 18km/h | 24283m | 4.4m/s | -52.5°C | 1.2% | 29.9hPa | 0V | 00:00:00 | 00:00:00 | 00:00:00 | |
| SP3WXH-11 | 2026-09-02 00:26:53 | 52.41954 | 21.72907 | 76° | 13km/h | 24203m | 5.8m/s | -52.2°C | 1.1% | 30.3hPa | 0V | 00:00:00 | 00:00:00 | 00:00:00 | |
| SP3WXH-11 | 2026-09-02 00:26:22 | 52.41929 | 21.72823 | 35° | 11km/h | 24015m | 4.7m/s | -51.8°C | 1.1% | 31.2hPa | 0V | 00:00:00 | 00:00:00 | 00:00:00 | |
| SP3WXH-11 | 2026-09-02 00:25:50 | 52.41875 | 21.72651 | 95° | 9km/h | 23837m | 6.9m/s | -52.1°C | 1.1% | 32.2hPa | 0V | 00:00:00 | 00:00:00 | 00:00:00 | |
| SP4MAZ | 2026-09-02 00:25:35 | 52.41838 | 21.72641 | 41° | 7km/h | 23745m | 6.6m/s | -52.2°C | 1.2% | 32.6hPa | 0V | 00:00:00 | 00:00:00 | 00:00:00 | |
| SP3WXH-11 | 2026-09-02 00:25:19 | 52.41824 | 21.72617 | 156° | 7km/h | 23626m | 3.9m/s | -52.1°C | 1.1% | 33.1hPa | 0V | 00:00:00 | 00:00:00 | 00:00:00 | |
| SP4MAZ | 2026-09-02 00:25:15 | 52.41826 | 21.72601 | 89° | 9km/h | 23600m | 6.0m/s | -52.1°C | 1.1% | 33.2hPa | 0V | 00:00:00 | 00:00:00 | 00:00:00 | |
| SP3WXH-11 | 2026-09-02 00:24:48 | 52.41810 | 21.72491 | 315° | 5km/h | 23453m | 4.3m/s | -52.7°C | 1.2% | 34.1hPa | 0V | 00:00:00 | 00:00:00 | 00:00:00 | |
| SP4MAZ | 2026-09-02 00:24:29 | 52.41794 | 21.72520 | 265° | 7km/h | 23346m | 6.7m/s | -52.9°C | 1.2% | 34.7hPa | 0V | 00:00:00 | 00:00:00 | 00:00:00 | |
| SP3WXH-11 | 2026-09-02 00:24:17 | 52.41815 | 21.72540 | 276° | 5km/h | 23272m | 6.2m/s | -52.9°C | 1.2% | 35.1hPa | 0V | 00:00:00 | 00:00:00 | 00:00:00 | |
| SP4MAZ | 2026-09-02 00:24:08 | 52.41827 | 21.72551 | 213° | 16km/h | 23228m | 5.8m/s | -52.5°C | 1.2% | 35.3hPa | 0V | 00:00:00 | 00:00:00 | 00:00:00 | |
| SP3WXH-11 | 2026-09-02 00:23:46 | 52.41907 | 21.72583 | 169° | 26km/h | 23089m | 5.4m/s | -52.9°C | 1.2% | 36.1hPa | 0V | 00:00:00 | 00:00:00 | 00:00:00 | |
| SP4MAZ | 2026-09-02 00:23:45 | 52.41908 | 21.72582 | 170° | 27km/h | 23089m | 5.4m/s | -52.9°C | 1.2% | 36.1hPa | 0V | 00:00:00 | 00:00:00 | 00:00:00 | |
| SP3WXH-11 | 2026-09-02 00:22:44 | 52.41906 | 21.72166 | 17° | 15km/h | 22695m | 5.2m/s | -53.0°C | 1.2% | 38.4hPa | 0V | 00:00:00 | 00:00:00 | 00:00:00 | |
| SP4MAZ | 2026-09-02 00:22:37 | 52.41884 | 21.72157 | 24° | 13km/h | 22655m | 4.3m/s | -53.1°C | 1.2% | 38.6hPa | 0V | 00:00:00 | 00:00:00 | 00:00:00 | |
| SP4MAZ | 2026-09-02 00:22:17 | 52.41846 | 21.72197 | 284° | 11km/h | 22552m | 6.1m/s | -53.2°C | 1.2% | 39.3hPa | 0V | 00:00:00 | 00:00:00 | 00:00:00 | |
| SP3WXH-11 | 2026-09-02 00:22:13 | 52.41843 | 21.72221 | 277° | 7km/h | 22523m | 7.4m/s | -53.1°C | 1.2% | 39.5hPa | 0V | 00:00:00 | 00:00:00 | 00:00:00 | |
| SP4MAZ | 2026-09-02 00:21:54 | 52.41867 | 21.72259 | 195° | 16km/h | 22396m | 4.9m/s | -53.1°C | 1.2% | 40.1hPa | 0V | 00:00:00 | 00:00:00 | 00:00:00 | |
| SP3WXH-11 | 2026-09-02 00:21:42 | 52.41897 | 21.72250 | 152° | 18km/h | 22315m | 5.6m/s | -53.2°C | 1.3% | 40.6hPa | 0V | 00:00:00 | 00:00:00 | 00:00:00 | |
| SP3WXH-11 | 2026-09-02 00:21:11 | 52.41937 | 21.72036 | 106° | 20km/h | 22143m | 4.6m/s | -52.5°C | 1.2% | 41.8hPa | 0V | 00:00:00 | 00:00:00 | 00:00:00 | |
| SP4MAZ | 2026-09-02 00:21:06 | 52.41938 | 21.72004 | 85° | 15km/h | 22122m | 6.2m/s | -52.5°C | 1.2% | 42.0hPa | 0V | 00:00:00 | 00:00:00 | 00:00:00 | |
| SP4MAZ | 2026-09-02 00:20:42 | 52.41928 | 21.71789 | 84° | 26km/h | 21976m | 5.1m/s | -52.1°C | 1.2% | 42.9hPa | 0V | 00:00:00 | 00:00:00 | 00:00:00 | |
| SP3WXH-11 | 2026-09-02 00:20:40 | 52.41926 | 21.71765 | 71° | 15km/h | 21956m | 4.6m/s | -52.1°C | 1.2% | 43.0hPa | 0V | 00:00:00 | 00:00:00 | 00:00:00 | |
| SP4MAZ | 2026-09-02 00:20:22 | 52.41889 | 21.71651 | 45° | 16km/h | 21863m | 6.1m/s | -51.8°C | 1.2% | 43.7hPa | 0V | 00:00:00 | 00:00:00 | 00:00:00 | |
| SP3WXH-11 | 2026-09-02 00:20:09 | 52.41870 | 21.71566 | 73° | 7km/h | 21778m | 4.9m/s | -51.8°C | 1.2% | 44.2hPa | 0V | 00:00:00 | 00:00:00 | 00:00:00 | |
| SP3WXH-11 | 2026-09-02 00:19:38 | 52.41861 | 21.71516 | 323° | 11km/h | 21605m | 4.6m/s | -51.9°C | 1.2% | 45.4hPa | 0V | 00:00:00 | 00:00:00 | 00:00:00 | |
| SP4MAZ | 2026-09-02 00:19:30 | 52.41853 | 21.71522 | 68° | 4km/h | 21569m | 3.5m/s | -51.9°C | 1.2% | 45.7hPa | 0V | 00:00:00 | 00:00:00 | 00:00:00 | |
| SP4MAZ | 2026-09-02 00:19:10 | 52.41851 | 21.71508 | 192° | 11km/h | 21463m | 5.7m/s | -51.8°C | 1.1% | 46.5hPa | 0V | 00:00:00 | 00:00:00 | 00:00:00 | |
| SP3WXH-11 | 2026-09-02 00:19:08 | 52.41861 | 21.71516 | 194° | 9km/h | 21444m | 5.5m/s | -51.8°C | 1.2% | 46.6hPa | 0V | 00:00:00 | 00:00:00 | 00:00:00 | |
| SP4MAZ | 2026-09-02 00:18:50 | 52.41914 | 21.71503 | 139° | 26km/h | 21354m | 5.9m/s | -52.2°C | 1.2% | 47.3hPa | 0V | 00:00:00 | 00:00:00 | 00:00:00 | |
| SP3WXH-11 | 2026-09-02 00:18:36 | 52.41952 | 21.71431 | 120° | 20km/h | 21269m | 5.5m/s | -52.1°C | 1.2% | 47.9hPa | 0V | 00:00:00 | 00:00:00 | 00:00:00 | |
| SP4MAZ | 2026-09-02 00:18:28 | 52.41969 | 21.71388 | 148° | 26km/h | 21225m | 5.2m/s | -52.1°C | 1.2% | 48.2hPa | 0V | 00:00:00 | 00:00:00 | 00:00:00 | |
| SP3WXH-11 | 2026-09-02 00:18:05 | 52.42081 | 21.71237 | 134° | 18km/h | 21092m | 6.2m/s | -52.8°C | 1.2% | 49.2hPa | 0V | 00:00:00 | 00:00:00 | 00:00:00 | |
| SP4MAZ | 2026-09-02 00:17:38 | 52.42149 | 21.70949 | 103° | 33km/h | 20942m | 5.3m/s | -53.1°C | 1.3% | 50.4hPa | 0V | 00:00:00 | 00:00:00 | 00:00:00 | |
| SP3WXH-11 | 2026-09-02 00:17:34 | 52.42154 | 21.70895 | 104° | 26km/h | 20912m | 5.7m/s | -53.1°C | 1.3% | 50.6hPa | 0V | 00:00:00 | 00:00:00 | 00:00:00 | |
| SP4MAZ | 2026-09-02 00:17:18 | 52.42147 | 21.70714 | 84° | 29km/h | 20830m | 7.7m/s | -53.1°C | 1.3% | 51.3hPa | 0V | 00:00:00 | 00:00:00 | 00:00:00 | |
| SP3WXH-11 | 2026-09-02 00:17:03 | 52.42137 | 21.70534 | 59° | 29km/h | 20729m | 5.0m/s | -53.1°C | 0% | 52.1hPa | 0V | 00:00:00 | 00:00:00 | 00:00:00 | |
| SP4MAZ | 2026-09-02 00:16:55 | 52.42136 | 21.70452 | 120° | 26km/h | 20687m | 5.5m/s | -53.1°C | 1.2% | 52.4hPa | 0V | 00:00:00 | 00:00:00 | 00:00:00 | |
| SP4MAZ | 2026-09-02 00:16:35 | 52.42162 | 21.70271 | 100° | 22km/h | 20573m | 6.7m/s | -53.4°C | 1.3% | 53.3hPa | 0V | 00:00:00 | 00:00:00 | 00:00:00 | |
| SP3WXH-11 | 2026-09-02 00:16:32 | 52.42167 | 21.70227 | 104° | 27km/h | 20555m | 6.0m/s | -53.4°C | 1.3% | 53.5hPa | 0V | 00:00:00 | 00:00:00 | 00:00:00 | |
| SP3WXH-11 | 2026-09-02 00:16:01 | 52.42142 | 21.69869 | 53° | 22km/h | 20357m | 6.2m/s | -53.3°C | 1.3% | 55.1hPa | 0V | 00:00:00 | 00:00:00 | 00:00:00 | |
| SP4MAZ | 2026-09-02 00:15:46 | 52.42067 | 21.69731 | 40° | 38km/h | 20288m | 4.2m/s | -53.7°C | 1.3% | 55.7hPa | 0V | 00:00:00 | 00:00:00 | 00:00:00 | |
| SP3WXH-11 | 2026-09-02 00:15:30 | 52.41936 | 21.69596 | 28° | 29km/h | 20192m | 4.6m/s | -53.1°C | 1.3% | 56.6hPa | 0V | 00:00:00 | 00:00:00 | 00:00:00 | |
| SP4MAZ | 2026-09-02 00:15:25 | 52.41914 | 21.69576 | 28° | 37km/h | 20175m | 4.5m/s | -53.1°C | 1.3% | 56.7hPa | 0V | 00:00:00 | 00:00:00 | 00:00:00 | |
| SP3WXH-11 | 2026-09-02 00:14:59 | 52.41748 | 21.69440 | 4° | 29km/h | 20030m | 6.8m/s | -52.5°C | 1.2% | 58.1hPa | 0V | 00:00:00 | 00:00:00 | 00:00:00 | |
| SP4MAZ | 2026-09-02 00:14:29 | 52.41597 | 21.69354 | 24° | 22km/h | 19862m | 5.7m/s | -51.9°C | 1.2% | 59.5hPa | 0V | 00:00:00 | 00:00:00 | 00:00:00 | |
| SP3WXH-11 | 2026-09-02 00:14:28 | 52.41584 | 21.69341 | 40° | 20km/h | 19845m | 6.0m/s | -51.8°C | 1.2% | 59.6hPa | 0V | 00:00:00 | 00:00:00 | 00:00:00 | |
| SP4MAZ | 2026-09-02 00:14:06 | 52.41513 | 21.69307 | 54° | 7km/h | 19740m | 4.2m/s | -51.8°C | 1.2% | 60.7hPa | 0V | 00:00:00 | 00:00:00 | 00:00:00 | |
| SP3WXH-11 | 2026-09-02 00:13:57 | 52.41486 | 21.69293 | 8° | 9km/h | 19681m | 5.0m/s | -51.8°C | 1.2% | 61.2hPa | 0V | 00:00:00 | 00:00:00 | 00:00:00 | |
| SP4MAZ | 2026-09-02 00:13:46 | 52.41464 | 21.69273 | 33° | 11km/h | 19639m | 7.0m/s | -51.7°C | 1.2% | 61.7hPa | 0V | 00:00:00 | 00:00:00 | 00:00:00 | |
| SP3WXH-11 | 2026-09-02 00:13:26 | 52.41413 | 21.69134 | 65° | 22km/h | 19507m | 4.9m/s | -51.7°C | 1.2% | 62.9hPa | 0V | 00:00:00 | 00:00:00 | 00:00:00 | |
| SP4MAZ | 2026-09-02 00:13:24 | 52.41413 | 21.69134 | 66° | 22km/h | 19507m | 4.9m/s | -51.7°C | 1.2% | 62.9hPa | 0V | 00:00:00 | 00:00:00 | 00:00:00 | |
| SP3WXH-11 | 2026-09-02 00:12:55 | 52.41310 | 21.68895 | 64° | 22km/h | 19338m | 5.0m/s | -52.3°C | 1.2% | 64.6hPa | 0V | 00:00:00 | 00:00:00 | 00:00:00 | |
| SP4MAZ | 2026-09-02 00:12:47 | 52.41302 | 21.68859 | 94° | 11km/h | 19306m | 5.2m/s | -52.2°C | 1.2% | 65.0hPa | 0V | 00:00:00 | 00:00:00 | 00:00:00 | |
| SP4MAZ | 2026-09-02 00:12:27 | 52.41300 | 21.68749 | 112° | 20km/h | 19170m | 5.6m/s | -52.4°C | 1.2% | 66.1hPa | 0V | 00:00:00 | 00:00:00 | 00:00:00 | |
| SP3WXH-11 | 2026-09-02 00:12:24 | 52.41304 | 21.68709 | 90° | 22km/h | 19144m | 5.6m/s | -52.3°C | 1.3% | 66.4hPa | 0V | 00:00:00 | 00:00:00 | 00:00:00 | |
| SP4MAZ | 2026-09-02 00:12:02 | 52.41288 | 21.68553 | 59° | 16km/h | 19016m | 8.1m/s | -51.9°C | 1.3% | 67.5hPa | 0V | 00:00:00 | 00:00:00 | 00:00:00 | |
| SP3WXH-11 | 2026-09-02 00:11:53 | 52.41273 | 21.68470 | 119° | 15km/h | 18926m | -3.0m/s | -51.7°C | 1.2% | 68.2hPa | 0V | 00:00:00 | 00:00:00 | 00:00:00 | |
| SP4MAZ | 2026-09-02 00:11:42 | 52.41297 | 21.68395 | 114° | 16km/h | 18920m | 5.0m/s | -51.6°C | 1.3% | 68.8hPa | 0V | 00:00:00 | 00:00:00 | 00:00:00 | |
| SP3WXH-11 | 2026-09-02 00:11:21 | 52.41294 | 21.68242 | 99° | 16km/h | 18809m | 7.1m/s | -51.1°C | 1.2% | 70.0hPa | 0V | 00:00:00 | 00:00:00 | 00:00:00 | |
| SP4MAZ | 2026-09-02 00:11:08 | 52.41282 | 21.68173 | 106° | 11km/h | 18732m | 5.8m/s | -50.8°C | 1.2% | 70.8hPa | 0V | 00:00:00 | 00:00:00 | 00:00:00 | |
| SP3WXH-11 | 2026-09-02 00:10:50 | 52.41271 | 21.68050 | 98° | 18km/h | 18633m | 3.1m/s | -50.8°C | 1.2% | 71.9hPa | 0V | 00:00:00 | 00:00:00 | 00:00:00 | |
| SP3WXH-11 | 2026-09-02 00:10:19 | 52.41222 | 21.67755 | 74° | 29km/h | 18474m | 5.2m/s | -51.4°C | 1.2% | 73.7hPa | 0V | 00:00:00 | 00:00:00 | 00:00:00 | |
| SP3WXH-11 | 2026-09-02 00:09:49 | 52.41203 | 21.67480 | 86° | 27km/h | 18311m | 4.0m/s | -52.0°C | 1.3% | 75.6hPa | 0V | 00:00:00 | 00:00:00 | 00:00:00 | |
| SP4MAZ | 2026-09-02 00:09:37 | 52.41209 | 21.67359 | 101° | 24km/h | 18253m | 5.0m/s | -51.8°C | 1.3% | 76.3hPa | 0V | 00:00:00 | 00:00:00 | 00:00:00 | |
| SP3WXH-11 | 2026-09-02 00:09:17 | 52.41222 | 21.67152 | 92° | 26km/h | 18148m | 4.0m/s | -51.6°C | 1.3% | 77.5hPa | 0V | 00:00:00 | 00:00:00 | 00:00:00 | |
| SP4MAZ | 2026-09-02 00:09:14 | 52.41223 | 21.67131 | 107° | 24km/h | 18140m | 5.3m/s | -51.6°C | 1.3% | 77.6hPa | 0V | 00:00:00 | 00:00:00 | 00:00:00 | |
| SP3WXH-11 | 2026-09-02 00:08:46 | 52.41280 | 21.66792 | 94° | 37km/h | 17992m | 5.9m/s | -51.4°C | 1.3% | 79.4hPa | 0V | 00:00:00 | 00:00:00 | 00:00:00 | |
| SP4MAZ | 2026-09-02 00:08:30 | 52.41290 | 21.66570 | 96° | 31km/h | 17910m | 3.6m/s | -51.6°C | 1.3% | 80.4hPa | 0V | 00:00:00 | 00:00:00 | 00:00:00 | |
| SP3WXH-11 | 2026-09-02 00:08:15 | 52.41287 | 21.66325 | 97° | 46km/h | 17827m | 4.8m/s | -51.8°C | 1.3% | 81.4hPa | 0V | 00:00:00 | 00:00:00 | 00:00:00 | |
| SP4MAZ | 2026-09-02 00:08:08 | 52.41284 | 21.66200 | 87° | 47km/h | 17788m | 4.6m/s | -51.9°C | 1.3% | 81.9hPa | 0V | 00:00:00 | 00:00:00 | 00:00:00 | |
| SP4MAZ | 2026-09-02 00:07:47 | 52.41250 | 21.65806 | 89° | 46km/h | 17695m | 5.7m/s | -52.0°C | 1.3% | 83.2hPa | 0V | 00:00:00 | 00:00:00 | 00:00:00 | |
| SP3WXH-11 | 2026-09-02 00:07:44 | 52.41244 | 21.65729 | 73° | 46km/h | 17674m | 4.7m/s | -52.1°C | 1.3% | 83.4hPa | 0V | 00:00:00 | 00:00:00 | 00:00:00 | |
| SP4MAZ | 2026-09-02 00:07:19 | 52.41148 | 21.65344 | 62° | 37km/h | 17538m | 6.1m/s | -51.8°C | 1.3% | 85.2hPa | 0V | 00:00:00 | 00:00:00 | 00:00:00 | |
| SP3WXH-11 | 2026-09-02 00:07:13 | 52.41118 | 21.65274 | 50° | 33km/h | 17505m | 5.2m/s | -51.8°C | 1.3% | 85.6hPa | 0V | 00:00:00 | 00:00:00 | 00:00:00 | |
| SP4MAZ | 2026-09-02 00:06:56 | 52.41016 | 21.65100 | 42° | 29km/h | 17406m | 6.2m/s | -51.7°C | 1.3% | 86.8hPa | 0V | 00:00:00 | 00:00:00 | 00:00:00 | |
| SP3WXH-11 | 2026-09-02 00:06:42 | 52.40953 | 21.64985 | 56° | 18km/h | 17328m | 4.2m/s | -51.1°C | 1.3% | 87.9hPa | 0V | 00:00:00 | 00:00:00 | 00:00:00 | |
| SP4MAZ | 2026-09-02 00:06:28 | 52.40921 | 21.64847 | 86° | 24km/h | 17253m | 4.5m/s | -51.0°C | 1.3% | 89.0hPa | 0V | 00:00:00 | 00:00:00 | 00:00:00 | |
| SP3WXH-11 | 2026-09-02 00:06:11 | 52.40911 | 21.64641 | 97° | 24km/h | 17158m | 5.5m/s | -51.6°C | 1.3% | 90.3hPa | 0V | 00:00:00 | 00:00:00 | 00:00:00 | |
| SP4MAZ | 2026-09-02 00:06:04 | 52.40915 | 21.64562 | 92° | 29km/h | 17123m | 3.5m/s | -51.7°C | 1.3% | 90.8hPa | 0V | 00:00:00 | 00:00:00 | 00:00:00 | |
| SP3WXH-11 | 2026-09-02 00:05:40 | 52.40892 | 21.64378 | 66° | 22km/h | 16990m | 5.4m/s | -51.3°C | 1.3% | 92.7hPa | 0V | 00:00:00 | 00:00:00 | 00:00:00 | |
| SP4MAZ | 2026-09-02 00:05:33 | 52.40879 | 21.64324 | 65° | 20km/h | 16954m | 6.7m/s | -51.1°C | 1.3% | 93.2hPa | 0V | 00:00:00 | 00:00:00 | 00:00:00 | |
| SP4MAZ | 2026-09-02 00:05:12 | 52.40818 | 21.64181 | 62° | 20km/h | 16842m | 6.0m/s | -51.1°C | 1.3% | 94.8hPa | 0V | 00:00:00 | 00:00:00 | 00:00:00 | |
| SP3WXH-11 | 2026-09-02 00:05:09 | 52.40807 | 21.64150 | 64° | 24km/h | 16818m | 3.4m/s | -51.0°C | 1.3% | 95.1hPa | 0V | 00:00:00 | 00:00:00 | 00:00:00 | |
| SP4MAZ | 2026-09-02 00:04:50 | 52.40747 | 21.64022 | 55° | 20km/h | 16719m | 5.0m/s | -50.2°C | 1.2% | 96.7hPa | 0V | 00:00:00 | 00:00:00 | 00:00:00 | |
| SP3WXH-11 | 2026-09-02 00:04:39 | 52.40717 | 21.63930 | 88° | 16km/h | 16646m | 4.7m/s | -50.0°C | 1.3% | 97.6hPa | 0V | 00:00:00 | 00:00:00 | 00:00:00 | |
| SP4MAZ | 2026-09-02 00:04:20 | 52.40704 | 21.63777 | 106° | 24km/h | 16556m | 3.8m/s | -49.2°C | 1.2% | 99.0hPa | 0V | 00:00:00 | 00:00:00 | 00:00:00 | |
| SP3WXH-11 | 2026-09-02 00:04:08 | 52.40702 | 21.63624 | 97° | 35km/h | 16475m | 5.7m/s | -49.5°C | 1.2% | 100.3hPa | 0V | 00:00:00 | 00:00:00 | 00:00:00 | |
| SP3WXH-11 | 2026-09-02 00:03:38 | 52.40727 | 21.63285 | 102° | 18km/h | 16310m | 5.8m/s | -48.9°C | 1.2% | 102.9hPa | 0V | 00:00:00 | 00:00:00 | 00:00:00 | |
| SP4MAZ | 2026-09-02 00:03:30 | 52.40728 | 21.63223 | 117° | 22km/h | 16260m | 4.7m/s | -49.0°C | 1.2% | 103.7hPa | 0V | 00:00:00 | 00:00:00 | 00:00:00 | |
| SP4MAZ | 2026-09-02 00:03:20 | 52.40804 | 21.63037 | 122° | 24km/h | 16146m | 5.7m/s | -48.9°C | 1.2% | 105.5hPa | 0V | 00:00:00 | 00:00:00 | 00:00:00 | |
| SP3WXH-11 | 2026-09-02 00:03:19 | 52.40811 | 21.63024 | 133° | 16km/h | 16139m | 4.6m/s | -48.9°C | 1.2% | 105.6hPa | 0V | 00:00:00 | 00:00:00 | 00:00:00 | |
| SP4MAZ | 2026-09-02 00:02:54 | 52.40891 | 21.62708 | 100° | 51km/h | 16025m | 5.8m/s | -49.4°C | 1.2% | 107.5hPa | 0V | 00:00:00 | 00:00:00 | 00:00:00 | |
| SP3WXH-11 | 2026-09-02 00:02:43 | 52.40933 | 21.62501 | 106° | 51km/h | 15968m | 4.1m/s | -49.6°C | 1.2% | 108.4hPa | 0V | 00:00:00 | 00:00:00 | 00:00:00 | |
| SP4MAZ | 2026-09-02 00:02:34 | 52.40961 | 21.62300 | 105° | 62km/h | 15915m | 4.3m/s | -50.4°C | 1.3% | 109.2hPa | 0V | 00:00:00 | 00:00:00 | 00:00:00 | |
| SP3WXH-11 | 2026-09-02 00:02:12 | 52.41006 | 21.61811 | 102° | 49km/h | 15814m | 5.4m/s | -50.9°C | 1.4% | 110.9hPa | 0V | 00:00:00 | 00:00:00 | 00:00:00 | |
| SP4MAZ | 2026-09-02 00:01:59 | 52.41041 | 21.61595 | 105° | 62km/h | 15768m | 4.4m/s | -50.9°C | 1.4% | 111.7hPa | 0V | 00:00:00 | 00:00:00 | 00:00:00 | |
| SP3WXH-11 | 2026-09-02 00:01:41 | 52.41114 | 21.61057 | 96° | 66km/h | 15666m | 5.2m/s | -51.2°C | 1.4% | 113.5hPa | 0V | 00:00:00 | 00:00:00 | 00:00:00 | |
| SP4MAZ | 2026-09-02 00:01:39 | 52.41114 | 21.61057 | 98° | 66km/h | 15666m | 5.2m/s | -51.2°C | 1.4% | 113.5hPa | 0V | 00:00:00 | 00:00:00 | 00:00:00 | |
| SP4MAZ | 2026-09-02 00:01:14 | 52.41103 | 21.60464 | 87° | 64km/h | 15563m | 3.9m/s | -51.5°C | 1.5% | 115.3hPa | 0V | 00:00:00 | 00:00:00 | 00:00:00 | |
| SP3WXH-11 | 2026-09-02 00:01:01 | 52.41089 | 21.60212 | 78° | 58km/h | 15513m | 3.4m/s | -51.3°C | 1.5% | 116.2hPa | 0V | 00:00:00 | 00:00:00 | 00:00:00 | |
| SP4MAZ | 2026-09-02 00:00:50 | 52.41073 | 21.59962 | 86° | 57km/h | 15463m | 3.6m/s | -51.5°C | 1.5% | 117.0hPa | 0V | 00:00:00 | 00:00:00 | 00:00:00 | |
| SP3WXH-11 | 2026-09-02 00:00:34 | 52.41044 | 21.59443 | 81° | 51km/h | 15361m | 3.9m/s | -51.3°C | 1.5% | 119.0hPa | 0V | 00:00:00 | 00:00:00 | 00:00:00 | |
| SP4MAZ | 2026-09-02 00:00:23 | 52.41042 | 21.59199 | 100° | 57km/h | 15309m | 6.4m/s | -51.3°C | 1.5% | 120.0hPa | 0V | 00:00:00 | 00:00:00 | 00:00:00 | |
| SP3WXH-11 | 2026-09-01 23:59:59 | 52.41054 | 21.58760 | 96° | 57km/h | 15202m | 4.1m/s | -51.2°C | 1.5% | 121.9hPa | 0V | 00:00:00 | 00:00:00 | 00:00:00 | |
| SP4MAZ | 2026-09-01 23:59:56 | 52.41055 | 21.58737 | 93° | 57km/h | 15197m | 6.4m/s | -51.2°C | 1.5% | 122.0hPa | 0V | 00:00:00 | 00:00:00 | 00:00:00 | |
| SP4MAZ | 2026-09-01 23:59:36 | 52.41076 | 21.58281 | 96° | 58km/h | 15086m | 5.0m/s | -50.9°C | 1.5% | 124.0hPa | 0V | 00:00:00 | 00:00:00 | 00:00:00 | |
| SP3WXH-11 | 2026-09-01 23:59:28 | 52.41077 | 21.58032 | 92° | 66km/h | 15031m | 5.0m/s | -51.0°C | 1.5% | 125.1hPa | 0V | 00:00:00 | 00:00:00 | 00:00:00 | |
| SP4MAZ | 2026-09-01 23:59:13 | 52.41061 | 21.57677 | 78° | 64km/h | 14963m | 5.0m/s | -51.2°C | 1.5% | 126.5hPa | 0V | 00:00:00 | 00:00:00 | 00:00:00 | |
| SP3WXH-11 | 2026-09-01 23:58:56 | 52.40986 | 21.57173 | 74° | 69km/h | 14867m | 5.5m/s | -51.5°C | 1.6% | 128.3hPa | 0V | 00:00:00 | 00:00:00 | 00:00:00 | |
| SP4MAZ | 2026-09-01 23:58:42 | 52.40936 | 21.56831 | 85° | 60km/h | 14798m | 5.7m/s | -51.3°C | 1.6% | 129.8hPa | 0V | 00:00:00 | 00:00:00 | 00:00:00 | |
| SP3WXH-11 | 2026-09-01 23:58:25 | 52.40903 | 21.56398 | 86° | 55km/h | 14700m | 4.7m/s | -51.1°C | 1.6% | 131.7hPa | 0V | 00:00:00 | 00:00:00 | 00:00:00 | |
| SP4MAZ | 2026-09-01 23:58:19 | 52.40899 | 21.56281 | 88° | 62km/h | 14676m | 4.3m/s | -51.1°C | 1.6% | 132.3hPa | 0V | 00:00:00 | 00:00:00 | 00:00:00 | |
| SP3WXH-11 | 2026-09-01 23:57:54 | 52.40833 | 21.55632 | 79° | 60km/h | 14537m | 5.6m/s | -51.5°C | 1.7% | 135.1hPa | 0V | 00:00:00 | 00:00:00 | 00:00:00 | |
| SP4MAZ | 2026-09-01 23:57:29 | 52.40739 | 21.55100 | 77° | 51km/h | 14415m | 6.4m/s | -51.6°C | 1.7% | 137.6hPa | 0V | 00:00:00 | 00:00:00 | 00:00:00 | |
| SP3WXH-11 | 2026-09-01 23:57:23 | 52.40712 | 21.54960 | 77° | 51km/h | 14379m | 5.6m/s | -51.4°C | 1.7% | 138.4hPa | 0V | 00:00:00 | 00:00:00 | 00:00:00 | |
| SP4MAZ | 2026-09-01 23:57:09 | 52.40674 | 21.54708 | 92° | 51km/h | 14309m | 4.6m/s | -51.2°C | 1.7% | 139.8hPa | 0V | 00:00:00 | 00:00:00 | 00:00:00 | |
| SP3WXH-11 | 2026-09-01 23:56:52 | 52.40656 | 21.54356 | 96° | 47km/h | 14214m | 4.6m/s | -50.9°C | 1.7% | 141.7hPa | 0V | 00:00:00 | 00:00:00 | 00:00:00 | |
| SP4MAZ | 2026-09-01 23:56:49 | 52.40658 | 21.54315 | 92° | 49km/h | 14204m | 3.3m/s | -50.8°C | 1.7% | 141.9hPa | 0V | 00:00:00 | 00:00:00 | 00:00:00 | |
| SP3WXH-11 | 2026-09-01 23:56:21 | 52.40646 | 21.53712 | 89° | 51km/h | 14067m | 5.0m/s | -50.3°C | 1.6% | 145.2hPa | 0V | 00:00:00 | 00:00:00 | 00:00:00 | |
| SP4MAZ | 2026-09-01 23:56:19 | 52.40646 | 21.53690 | 92° | 53km/h | 14062m | 5.8m/s | -50.3°C | 1.6% | 145.3hPa | 0V | 00:00:00 | 00:00:00 | 00:00:00 | |
| SP3WXH-11 | 2026-09-01 23:55:50 | 52.40638 | 21.52944 | 85° | 58km/h | 13918m | 5.2m/s | -50.1°C | 1.7% | 148.6hPa | 0V | 00:00:00 | 00:00:00 | 00:00:00 | |
| SP4MAZ | 2026-09-01 23:55:42 | 52.40625 | 21.52756 | 88° | 68km/h | 13880m | 4.0m/s | -50.1°C | 1.6% | 149.4hPa | 0V | 00:00:00 | 00:00:00 | 00:00:00 | |
| SP4MAZ | 2026-09-01 23:55:22 | 52.40587 | 21.52208 | 80° | 62km/h | 13783m | 5.6m/s | -50.6°C | 1.7% | 151.7hPa | 0V | 00:00:00 | 00:00:00 | 00:00:00 | |
| SP3WXH-11 | 2026-09-01 23:55:19 | 52.40572 | 21.52108 | 74° | 58km/h | 13763m | 6.4m/s | -50.6°C | 1.7% | 152.1hPa | 0V | 00:00:00 | 00:00:00 | 00:00:00 | |
| SP3WXH-11 | 2026-09-01 23:54:48 | 52.40488 | 21.51337 | 89° | 58km/h | 13602m | 5.1m/s | -51.4°C | 1.8% | 155.9hPa | 0V | 00:00:00 | 00:00:00 | 00:00:00 | |
| SP3WXH-11 | 2026-09-01 23:54:17 | 52.40419 | 21.50550 | 81° | 53km/h | 13452m | 4.3m/s | -51.9°C | 2.1% | 159.5hPa | 0V | 00:00:00 | 00:00:00 | 00:00:00 | |
| SP4MAZ | 2026-09-01 23:54:12 | 52.40407 | 21.50454 | 74° | 62km/h | 13431m | 6.0m/s | -51.9°C | 2.0% | 160.0hPa | 0V | 00:00:00 | 00:00:00 | 00:00:00 | |
| SP3WXH-11 | 2026-09-01 23:53:46 | 52.40354 | 21.49851 | 82° | 58km/h | 13300m | 5.0m/s | -51.3°C | 2.1% | 163.3hPa | 0V | 00:00:00 | 00:00:00 | 00:00:00 | |
| SP4MAZ | 2026-09-01 23:53:31 | 52.40346 | 21.49487 | 97° | 71km/h | 13226m | 4.7m/s | -51.6°C | 2.2% | 165.1hPa | 0V | 00:00:00 | 00:00:00 | 00:00:00 | |
| SP3WXH-11 | 2026-09-01 23:53:15 | 52.40348 | 21.49026 | 88° | 68km/h | 13148m | 4.2m/s | -51.5°C | 2.2% | 167.3hPa | 0V | 00:00:00 | 00:00:00 | 00:00:00 | |
| SP4MAZ | 2026-09-01 23:53:11 | 52.40340 | 21.48918 | 86° | 64km/h | 13129m | 5.8m/s | -51.4°C | 2.2% | 167.8hPa | 0V | 00:00:00 | 00:00:00 | 00:00:00 | |
| SP3WXH-11 | 2026-09-01 23:52:44 | 52.40276 | 21.48254 | 79° | 57km/h | 12994m | 4.4m/s | -50.7°C | 2.2% | 171.3hPa | 0V | 00:00:00 | 00:00:00 | 00:00:00 | |
| SP3WXH-11 | 2026-09-01 23:52:13 | 52.40181 | 21.47532 | 80° | 58km/h | 12835m | 4.9m/s | -50.7°C | 2.5% | 175.4hPa | 0V | 00:00:00 | 00:00:00 | 00:00:00 | |
| SP4MAZ | 2026-09-01 23:52:10 | 52.40177 | 21.47483 | 84° | 58km/h | 12825m | 3.3m/s | -50.8°C | 2.5% | 175.7hPa | 0V | 00:00:00 | 00:00:00 | 00:00:00 | |
| SP4MAZ | 2026-09-01 23:51:49 | 52.40149 | 21.47042 | 85° | 53km/h | 12728m | 4.6m/s | -50.6°C | 2.8% | 178.5hPa | 0V | 00:00:00 | 00:00:00 | 00:00:00 | |
| SP3WXH-11 | 2026-09-01 23:51:42 | 52.40142 | 21.46859 | 86° | 55km/h | 12683m | 6.1m/s | -50.5°C | 2.9% | 179.5hPa | 0V | 00:00:00 | 00:00:00 | 00:00:00 | |
| SP4MAZ | 2026-09-01 23:51:29 | 52.40128 | 21.46580 | 89° | 64km/h | 12625m | 5.0m/s | -50.4°C | 3.2% | 181.2hPa | 0V | 00:00:00 | 00:00:00 | 00:00:00 | |
| SP3WXH-11 | 2026-09-01 23:51:11 | 52.40115 | 21.46037 | 85° | 78km/h | 12526m | 6.4m/s | -51.8°C | 4.4% | 183.9hPa | 0V | 00:00:00 | 00:00:00 | 00:00:00 | |
| SP4MAZ | 2026-09-01 23:50:47 | 52.40098 | 21.45312 | 89° | 88km/h | 12410m | 5.3m/s | -52.4°C | 5.3% | 187.2hPa | 0V | 00:00:00 | 00:00:00 | 00:00:00 | |
| SP3WXH-11 | 2026-09-01 23:50:40 | 52.40083 | 21.45032 | 83° | 82km/h | 12363m | 5.8m/s | -52.8°C | 6.0% | 188.4hPa | 0V | 00:00:00 | 00:00:00 | 00:00:00 | |
| SP4MAZ | 2026-09-01 23:50:18 | 52.40043 | 21.44278 | 82° | 88km/h | 12259m | 7.3m/s | -53.7°C | 7.8% | 191.6hPa | 0V | 00:00:00 | 00:00:00 | 00:00:00 | |
| SP3WXH-11 | 2026-09-01 23:50:09 | 52.40013 | 21.43951 | 85° | 82km/h | 12207m | 5.1m/s | -53.8°C | 8.4% | 193.3hPa | 0V | 00:00:00 | 00:00:00 | 00:00:00 | |
| SP4MAZ | 2026-09-01 23:49:44 | 52.40004 | 21.43193 | 90° | 66km/h | 12083m | 5.4m/s | -54.0°C | 10.3% | 197.0hPa | 0V | 00:00:00 | 00:00:00 | 00:00:00 | |
| SP3WXH-11 | 2026-09-01 23:49:38 | 52.40008 | 21.43022 | 89° | 68km/h | 12050m | 5.4m/s | -53.9°C | 10.6% | 197.9hPa | 0V | 00:00:00 | 00:00:00 | 00:00:00 | |
| SP4MAZ | 2026-09-01 23:49:23 | 52.40014 | 21.42606 | 91° | 77km/h | 11986m | 6.3m/s | -53.6°C | 11.1% | 200.0hPa | 0V | 00:00:00 | 00:00:00 | 00:00:00 | |
| SP3WXH-11 | 2026-09-01 23:49:07 | 52.40050 | 21.42076 | 99° | 69km/h | 11903m | 4.0m/s | -53.6°C | 13.8% | 202.8hPa | 0V | 00:00:00 | 00:00:00 | 00:00:00 | |
| SP3WXH-11 | 2026-09-01 23:48:36 | 52.40088 | 21.40984 | 86° | 84km/h | 11740m | 5.0m/s | -55.2°C | 24.0% | 207.8hPa | 0V | 00:00:00 | 00:00:00 | 00:00:00 | |
| SP3WXH-11 | 2026-09-01 23:48:05 | 52.40019 | 21.39939 | 76° | 75km/h | 11578m | 5.8m/s | -56.6°C | 32.0% | 213.1hPa | 0V | 00:00:00 | 00:00:00 | 00:00:00 | |
| SP4MAZ | 2026-09-01 23:47:39 | 52.39930 | 21.39145 | 76° | 75km/h | 11457m | 4.9m/s | -56.3°C | 35.2% | 217.3hPa | 0V | 00:00:00 | 00:00:00 | 00:00:00 | |
| SP3WXH-11 | 2026-09-01 23:47:34 | 52.39894 | 21.38913 | 75° | 89km/h | 11418m | 5.5m/s | -56.2°C | 35.3% | 218.6hPa | 0V | 00:00:00 | 00:00:00 | 00:00:00 | |
| SP4MAZ | 2026-09-01 23:47:05 | 52.39745 | 21.37989 | 75° | 84km/h | 11274m | 5.1m/s | -55.7°C | 38.7% | 223.7hPa | 0V | 00:00:00 | 00:00:00 | 00:00:00 | |
| SP3WXH-11 | 2026-09-01 23:47:03 | 52.39726 | 21.37889 | 69° | 82km/h | 11258m | 7.0m/s | -55.6°C | 39.4% | 224.3hPa | 0V | 00:00:00 | 00:00:00 | 00:00:00 | |
| SP4MAZ | 2026-09-01 23:46:43 | 52.39611 | 21.37294 | 76° | 82km/h | 11163m | 4.7m/s | -55.2°C | 41.2% | 227.6hPa | 0V | 00:00:00 | 00:00:00 | 00:00:00 | |
| SP3WXH-11 | 2026-09-01 23:46:32 | 52.39549 | 21.36878 | 79° | 78km/h | 11098m | 6.0m/s | -54.9°C | 41.9% | 230.0hPa | 0V | 00:00:00 | 00:00:00 | 00:00:00 | |
| SP4MAZ | 2026-09-01 23:46:23 | 52.39530 | 21.36642 | 86° | 88km/h | 11055m | 6.5m/s | -54.7°C | 39.9% | 231.4hPa | 0V | 00:00:00 | 00:00:00 | 00:00:00 | |
| SP3WXH-11 | 2026-09-01 23:46:01 | 52.39483 | 21.35851 | 86° | 78km/h | 10932m | 5.5m/s | -54.1°C | 40.5% | 236.0hPa | 0V | 00:00:00 | 00:00:00 | 00:00:00 | |
| SP4MAZ | 2026-09-01 23:45:59 | 52.39482 | 21.35851 | 88° | 80km/h | 10933m | 5.5m/s | -54.1°C | 40.5% | 236.0hPa | 0V | 00:00:00 | 00:00:00 | 00:00:00 | |
| SP4MAZ | 2026-09-01 23:45:39 | 52.39441 | 21.35174 | 85° | 88km/h | 10823m | 5.7m/s | -53.7°C | 35.3% | 240.0hPa | 0V | 00:00:00 | 00:00:00 | 00:00:00 | |
| SP3WXH-11 | 2026-09-01 23:45:30 | 52.39393 | 21.34803 | 74° | 78km/h | 10766m | 4.2m/s | -53.3°C | 33.7% | 242.1hPa | 0V | 00:00:00 | 00:00:00 | 00:00:00 | |
| SP4MAZ | 2026-09-01 23:45:10 | 52.39335 | 21.34156 | 80° | 88km/h | 10660m | 6.1m/s | -52.3°C | 31.8% | 246.2hPa | 0V | 00:00:00 | 00:00:00 | 00:00:00 | |
| SP3WXH-11 | 2026-09-01 23:44:59 | 52.39302 | 21.33740 | 78° | 80km/h | 10591m | 3.5m/s | -52.0°C | 36.4% | 248.7hPa | 0V | 00:00:00 | 00:00:00 | 00:00:00 | |
| SP4MAZ | 2026-09-01 23:44:49 | 52.39292 | 21.33464 | 86° | 80km/h | 10555m | 6.8m/s | -51.7°C | 35.9% | 250.2hPa | 0V | 00:00:00 | 00:00:00 | 00:00:00 | |
| SP4MAZ | 2026-09-01 23:44:29 | 52.39206 | 21.32808 | 74° | 77km/h | 10434m | 3.4m/s | -51.0°C | 35.3% | 254.8hPa | 0V | 00:00:00 | 00:00:00 | 00:00:00 | |
| SP3WXH-11 | 2026-09-01 23:44:28 | 52.39190 | 21.32718 | 78° | 80km/h | 10416m | 6.3m/s | -50.9°C | 35.4% | 255.5hPa | 0V | 00:00:00 | 00:00:00 | 00:00:00 | |
| SP4MAZ | 2026-09-01 23:44:10 | 52.39130 | 21.32119 | 83° | 91km/h | 10310m | 8.7m/s | -50.2°C | 0% | 0hPa | 0V | 00:00:00 | 00:00:00 | 00:00:00 | |
| SP3WXH-11 | 2026-09-01 23:43:57 | 52.39079 | 21.31619 | 84° | 84km/h | 10225m | 7.8m/s | -49.5°C | 31.4% | 263.1hPa | 0V | 00:00:00 | 00:00:00 | 00:00:00 | |
| SP4MAZ | 2026-09-01 23:43:47 | 52.39049 | 21.31281 | 79° | 89km/h | 10169m | 8.0m/s | 0°C | 0% | 265.4hPa | 0V | 00:00:00 | 00:00:00 | 00:00:00 | |
| SP4MAZ | 2026-09-01 23:43:26 | 52.38966 | 21.30614 | 82° | 80km/h | 10042m | 4.2m/s | 0°C | 0% | 270.6hPa | 0V | 00:00:00 | 00:00:00 | 00:00:00 | |
| SP4MAZ | 2026-09-01 23:43:05 | 52.38925 | 21.29922 | 90° | 80km/h | 9934m | 5.9m/s | 0°C | 0% | 275.1hPa | 0V | 00:00:00 | 00:00:00 | 00:00:00 | |
| SP3WXH-11 | 2026-09-01 23:42:55 | 52.38890 | 21.29529 | 87° | 88km/h | 9859m | 5.0m/s | -46.7°C | 36.7% | 278.1hPa | 0V | 00:00:00 | 00:00:00 | 00:00:00 | |
| SP4MAZ | 2026-09-01 23:42:44 | 52.38866 | 21.29209 | 84° | 82km/h | 9809m | 4.9m/s | 0°C | 0% | 280.3hPa | 0V | 00:00:00 | 00:00:00 | 00:00:00 | |
| SP4MAZ | 2026-09-01 23:42:24 | 52.38811 | 21.28523 | 91° | 78km/h | 9698m | 5.2m/s | 0°C | 0% | 285.0hPa | 0V | 00:00:00 | 00:00:00 | 00:00:00 | |
| SP3WXH-11 | 2026-09-01 23:42:23 | 52.38811 | 21.28456 | 91° | 84km/h | 9687m | 5.4m/s | -45.3°C | 34.5% | 285.4hPa | 0V | 00:00:00 | 00:00:00 | 00:00:00 | |
| SP4MAZ | 2026-09-01 23:42:05 | 52.38783 | 21.27851 | 89° | 91km/h | 9578m | 6.7m/s | 0°C | 0% | 290.2hPa | 0V | 00:00:00 | 00:00:00 | 00:00:00 | |
| SP3WXH-11 | 2026-09-01 23:41:52 | 52.38758 | 21.27347 | 83° | 91km/h | 9488m | 6.3m/s | -43.7°C | 33.9% | 294.0hPa | 0V | 00:00:00 | 00:00:00 | 00:00:00 | |
| SP4MAZ | 2026-09-01 23:41:33 | 52.38731 | 21.26624 | 89° | 84km/h | 9374m | 9.9m/s | -42.7°C | 0% | 0hPa | 0V | 00:00:00 | 00:00:00 | 00:00:00 | |
| SP3WXH-11 | 2026-09-01 23:41:21 | 52.38736 | 21.26185 | 89° | 93km/h | 9292m | 6.6m/s | -42.0°C | 22.0% | 302.7hPa | 0V | 00:00:00 | 00:00:00 | 00:00:00 | |
| SP4MAZ | 2026-09-01 23:41:11 | 52.38738 | 21.25846 | 83° | 80km/h | 9245m | 7.4m/s | -41.5°C | 0% | 0hPa | 0V | 00:00:00 | 00:00:00 | 00:00:00 | |
| SP3WXH-11 | 2026-09-01 23:40:50 | 52.38718 | 21.25105 | 91° | 78km/h | 9104m | 8.5m/s | 0°C | -1.0% | 311.2hPa | 0V | 00:00:00 | 00:00:00 | 00:00:00 | |
| SP4MAZ | 2026-09-01 23:40:28 | 52.38721 | 21.24366 | 87° | 86km/h | 8969m | 3.5m/s | 0°C | 0% | 0hPa | 0V | 00:00:00 | 00:00:00 | 00:00:00 | |
| SP4MAZ | 2026-09-01 23:40:08 | 52.38707 | 21.23659 | 89° | 89km/h | 8851m | 4.7m/s | 0°C | 0% | 0hPa | 0V | 00:00:00 | 00:00:00 | 00:00:00 | |
| SP4MAZ | 2026-09-01 23:39:49 | 52.38706 | 21.22966 | 90° | 80km/h | 8732m | 6.4m/s | 0°C | 0% | 0hPa | 0V | 00:00:00 | 00:00:00 | 00:00:00 | |
| SP4MAZ | 2026-09-01 23:39:19 | 52.38689 | 21.21955 | 95° | 73km/h | 8557m | 8.6m/s | -35.9°C | 0% | 0hPa | 0V | 00:00:00 | 00:00:00 | 00:00:00 | |
| SP4MAZ | 2026-09-01 23:38:58 | 52.38697 | 21.21300 | 87° | 82km/h | 8428m | 7.2m/s | -35.2°C | 0% | 0hPa | 0V | 00:00:00 | 00:00:00 | 00:00:00 | |
| SP4MAZ | 2026-09-01 23:38:35 | 52.38710 | 21.20559 | 86° | 64km/h | 8277m | 5.6m/s | 0°C | 0% | 0hPa | 0V | 00:00:00 | 00:00:00 | 00:00:00 | |
| SP4MAZ | 2026-09-01 23:38:03 | 52.38688 | 21.19738 | 77° | 66km/h | 8086m | 6.9m/s | -35.3°C | 0% | 0hPa | 0V | 00:00:00 | 00:00:00 | 00:00:00 | |
| SP4MAZ | 2026-09-01 23:37:39 | 52.38593 | 21.19178 | 74° | 55km/h | 7940m | 6.6m/s | 0°C | 0% | 0hPa | 0V | 00:00:00 | 00:00:00 | 00:00:00 | |
| SP4MAZ | 2026-09-01 23:37:19 | 52.38527 | 21.18676 | 76° | 58km/h | 7819m | 7.2m/s | 0°C | 0% | 0hPa | 0V | 00:00:00 | 00:00:00 | 00:00:00 | |
| SP4MAZ | 2026-09-01 23:36:49 | 52.38428 | 21.17899 | 88° | 66km/h | 7622m | 7.4m/s | -31.1°C | 0% | 0hPa | 0V | 00:00:00 | 00:00:00 | 00:00:00 | |
| SP4MAZ | 2026-09-01 23:36:27 | 52.38378 | 21.17409 | 77° | 58km/h | 7489m | 5.2m/s | -30.1°C | 0% | 0hPa | 0V | 00:00:00 | 00:00:00 | 00:00:00 | |
| SP4MAZ | 2026-09-01 23:36:06 | 52.38357 | 21.16951 | 90° | 49km/h | 7356m | 5.2m/s | 0°C | 0% | 0hPa | 0V | 00:00:00 | 00:00:00 | 00:00:00 | |
| SP4MAZ | 2026-09-01 23:35:43 | 52.38313 | 21.16529 | 98° | 44km/h | 7215m | 5.8m/s | 0°C | 0% | 0hPa | 0V | 00:00:00 | 00:00:00 | 00:00:00 | |
| SP4MAZ | 2026-09-01 23:35:13 | 52.38288 | 21.15949 | 95° | 44km/h | 7016m | 7.4m/s | -26.6°C | 0% | 0hPa | 0V | 00:00:00 | 00:00:00 | 00:00:00 | |
| SP4MAZ | 2026-09-01 23:34:52 | 52.38284 | 21.15542 | 83° | 51km/h | 6875m | 7.4m/s | -25.3°C | 0% | 0hPa | 0V | 00:00:00 | 00:00:00 | 00:00:00 | |
| SP4MAZ | 2026-09-01 23:34:30 | 52.38264 | 21.15111 | 88° | 46km/h | 6738m | 8.0m/s | 0°C | 0% | 0hPa | 0V | 00:00:00 | 00:00:00 | 00:00:00 | |
| SP4MAZ | 2026-09-01 23:34:10 | 52.38242 | 21.14704 | 80° | 51km/h | 6608m | 5.6m/s | 0°C | 0% | 0hPa | 0V | 00:00:00 | 00:00:00 | 00:00:00 | |
| SP4MAZ | 2026-09-01 23:33:50 | 52.38212 | 21.14295 | 82° | 53km/h | 6480m | 5.7m/s | 0°C | 0% | 0hPa | 0V | 00:00:00 | 00:00:00 | 00:00:00 | |
| SP4MAZ | 2026-09-01 23:33:17 | 52.38164 | 21.13636 | 80° | 51km/h | 6272m | 5.7m/s | -20.5°C | 0% | 0hPa | 0V | 00:00:00 | 00:00:00 | 00:00:00 | |
| SP4MAZ | 2026-09-01 23:32:57 | 52.38135 | 21.13202 | 83° | 57km/h | 6154m | 7.6m/s | -19.7°C | 0% | 0hPa | 0V | 00:00:00 | 00:00:00 | 00:00:00 | |
| SP4MAZ | 2026-09-01 23:32:34 | 52.38105 | 21.12714 | 90° | 57km/h | 6020m | 5.7m/s | 0°C | 0% | 0hPa | 0V | 00:00:00 | 00:00:00 | 00:00:00 | |
| SP4MAZ | 2026-09-01 23:32:14 | 52.38094 | 21.12277 | 89° | 47km/h | 5894m | 7.0m/s | 0°C | 0% | 0hPa | 0V | 00:00:00 | 00:00:00 | 00:00:00 | |
| SP4MAZ | 2026-09-01 23:31:42 | 52.38067 | 21.11657 | 88° | 44km/h | 5715m | 6.3m/s | -16.7°C | 0% | 0hPa | 0V | 00:00:00 | 00:00:00 | 00:00:00 | |
| SP4MAZ | 2026-09-01 23:31:22 | 52.38053 | 21.11258 | 82° | 47km/h | 5594m | 6.1m/s | 0°C | 0% | 0hPa | 0V | 00:00:00 | 00:00:00 | 00:00:00 | |
| SP4MAZ | 2026-09-01 23:30:59 | 52.38052 | 21.10812 | 103° | 49km/h | 5460m | 7.9m/s | 0°C | 0% | 0hPa | 0V | 00:00:00 | 00:00:00 | 00:00:00 | |
| SP4MAZ | 2026-09-01 23:30:38 | 52.38058 | 21.10431 | 100° | 47km/h | 5340m | 7.1m/s | 0°C | 0% | 0hPa | 0V | 00:00:00 | 00:00:00 | 00:00:00 | |
| SP4MAZ | 2026-09-01 23:30:17 | 52.38070 | 21.10061 | 101° | 42km/h | 5214m | 5.8m/s | 0°C | 0% | 0hPa | 0V | 00:00:00 | 00:00:00 | 00:00:00 | |
| SP4MAZ | 2026-09-01 23:29:47 | 52.38170 | 21.09541 | 107° | 44km/h | 5039m | 5.3m/s | 0°C | 0% | 0hPa | 0V | 00:00:00 | 00:00:00 | 00:00:00 | |
| SP4MAZ | 2026-09-01 23:29:27 | 52.38244 | 21.09177 | 107° | 47km/h | 4913m | 7.2m/s | 0°C | 0% | 0hPa | 0V | 00:00:00 | 00:00:00 | 00:00:00 | |
| SP4MAZ | 2026-09-01 23:29:03 | 52.38295 | 21.08814 | 109° | 33km/h | 4782m | 7.1m/s | 0°C | 0% | 0hPa | 0V | 00:00:00 | 00:00:00 | 00:00:00 | |
| SP4MAZ | 2026-09-01 23:28:42 | 52.38331 | 21.08481 | 85° | 47km/h | 4659m | 4.8m/s | 0°C | 0% | 0hPa | 0V | 00:00:00 | 00:00:00 | 00:00:00 | |
| SP4MAZ | 2026-09-01 23:28:22 | 52.38334 | 21.08179 | 102° | 33km/h | 4554m | 5.2m/s | 0°C | 0% | 0hPa | 0V | 00:00:00 | 00:00:00 | 00:00:00 | |
| SP4MAZ | 2026-09-01 23:27:50 | 52.38351 | 21.07687 | 94° | 35km/h | 4358m | 6.8m/s | 0°C | 0% | 0hPa | 0V | 00:00:00 | 00:00:00 | 00:00:00 | |
| SP4MAZ | 2026-09-01 23:27:30 | 52.38342 | 21.07385 | 108° | 33km/h | 4227m | 6.3m/s | 0°C | 0% | 0hPa | 0V | 00:00:00 | 00:00:00 | 00:00:00 | |
| SP4MAZ | 2026-09-01 23:27:07 | 52.38391 | 21.07061 | 106° | 26km/h | 4088m | 5.3m/s | 0°C | 0% | 0hPa | 0V | 00:00:00 | 00:00:00 | 00:00:00 | |
| SP4MAZ | 2026-09-01 23:26:47 | 52.38443 | 21.06782 | 111° | 37km/h | 3966m | 4.4m/s | 0°C | 0% | 0hPa | 0V | 00:00:00 | 00:00:00 | 00:00:00 | |
| SP4MAZ | 2026-09-01 23:26:15 | 52.38498 | 21.06323 | 95° | 24km/h | 3778m | 4.9m/s | 0°C | 0% | 0hPa | 0V | 00:00:00 | 00:00:00 | 00:00:00 | |
| SP4MAZ | 2026-09-01 23:25:54 | 52.38523 | 21.06064 | 96° | 42km/h | 3661m | 6.1m/s | 0°C | 0% | 0hPa | 0V | 00:00:00 | 00:00:00 | 00:00:00 | |
| SP4MAZ | 2026-09-01 23:25:33 | 52.38553 | 21.05806 | 103° | 38km/h | 3539m | 5.0m/s | 0°C | 0% | 0hPa | 0V | 00:00:00 | 00:00:00 | 00:00:00 | |
| SP4MAZ | 2026-09-01 23:24:55 | 52.38590 | 21.05419 | 130° | 24km/h | 3318m | 6.2m/s | 0°C | 0% | 0hPa | 0V | 00:00:00 | 00:00:00 | 00:00:00 | |
| SP4MAZ | 2026-09-01 23:23:18 | 52.38949 | 21.04153 | 114° | 40km/h | 2782m | 4.6m/s | 0°C | 0% | 0hPa | 0V | 00:00:00 | 00:00:00 | 00:00:00 |